createdAt,value
2022-10-11T00:02:11.185Z,100310.69
2022-10-11T00:04:57.420Z,100323.88
2022-10-11T00:07:43.478Z,100311.84
2022-10-11T00:10:29.792Z,100317.59
2022-10-11T00:13:15.576Z,100310.19
2022-10-11T00:16:01.919Z,100316.97
2022-10-11T00:18:47.851Z,100318.19
2022-10-11T00:21:25.881Z,100314.16
2022-10-11T00:24:04.850Z,100313.59
2022-10-11T00:26:47.022Z,100317.31
2022-10-11T00:29:25.113Z,100312.22
2022-10-11T00:32:04.215Z,100301.50
2022-10-11T00:34:42.544Z,100302.34
2022-10-11T00:37:20.995Z,100310.66
2022-10-11T00:40:00.056Z,100312.25
2022-10-11T00:42:38.892Z,100298.09
2022-10-11T00:45:26.558Z,100298.16
2022-10-11T00:48:09.065Z,100294.91
2022-10-11T00:50:47.202Z,100295.44
2022-10-11T00:53:24.368Z,100295.31
2022-10-11T00:56:09.507Z,100288.69
2022-10-11T00:58:48.096Z,100294.47
2022-10-11T01:01:28.416Z,100297.41
2022-10-11T01:04:07.398Z,100294.50
2022-10-11T01:06:45.701Z,100289.94
2022-10-11T01:09:24.443Z,100302.03
2022-10-11T01:12:04.193Z,100293.84
2022-10-11T01:14:41.667Z,100301.31
2022-10-11T01:17:21.219Z,100305.78
2022-10-11T01:20:07.766Z,100292.88
2022-10-11T01:22:52.222Z,100286.00
2022-10-11T01:25:46.982Z,100295.28
2022-10-11T01:28:24.997Z,100279.88
2022-10-11T01:31:32.947Z,100290.00
2022-10-11T01:34:39.006Z,100286.06
2022-10-11T01:37:23.752Z,100284.47
2022-10-11T01:40:15.779Z,100274.66
2022-10-11T01:42:53.577Z,100285.44
2022-10-11T01:45:32.645Z,100277.50
2022-10-11T01:48:12.557Z,100276.41
2022-10-11T01:50:58.999Z,100270.28
2022-10-11T01:53:56.504Z,100278.66
2022-10-11T01:56:33.829Z,100280.81
2022-10-11T01:59:29.758Z,100281.34
2022-10-11T02:02:20.965Z,100276.00
2022-10-11T02:04:59.014Z,100273.38
2022-10-11T02:07:58.926Z,100275.16
2022-10-11T02:10:44.362Z,100278.91
2022-10-11T02:13:26.078Z,100275.78
2022-10-11T02:16:08.698Z,100267.03
2022-10-11T02:18:48.027Z,100269.94
2022-10-11T02:21:26.279Z,100266.16
2022-10-11T02:24:27.269Z,100268.00
2022-10-11T02:27:06.577Z,100275.13
2022-10-11T02:29:44.193Z,100272.22
2022-10-11T02:32:24.372Z,100268.97
2022-10-11T02:35:01.666Z,100274.00
2022-10-11T02:37:43.945Z,100267.31
2022-10-11T02:40:25.929Z,100273.97
2022-10-11T02:43:05.329Z,100274.69
2022-10-11T02:45:43.932Z,100281.37
2022-10-11T02:48:23.479Z,100270.66
2022-10-11T02:51:02.144Z,100272.00
2022-10-11T02:53:40.309Z,100282.72
2022-10-11T02:56:19.043Z,100284.19
2022-10-11T02:58:57.704Z,100287.22
2022-10-11T03:01:36.191Z,100289.72
2022-10-11T03:04:15.184Z,100278.41
2022-10-11T03:06:53.482Z,100277.50
2022-10-11T03:09:30.942Z,100281.09
2022-10-11T03:12:10.392Z,100275.34
2022-10-11T03:14:48.965Z,100271.91
2022-10-11T03:17:36.880Z,100274.13
2022-10-11T03:20:16.797Z,100282.97
2022-10-11T03:22:55.064Z,100282.69
2022-10-11T03:25:33.170Z,100285.72
2022-10-11T03:28:10.850Z,100283.00
2022-10-11T03:30:52.081Z,100289.25
2022-10-11T03:33:31.225Z,100286.72
2022-10-11T03:36:10.107Z,100290.41
2022-10-11T03:38:47.949Z,100292.06
2022-10-11T03:41:27.904Z,100298.37
2022-10-11T03:44:05.142Z,100290.22
2022-10-11T03:46:42.419Z,100301.41
2022-10-11T03:49:20.983Z,100303.44
2022-10-11T03:51:59.625Z,100305.37
2022-10-11T03:54:36.711Z,100299.91
2022-10-11T03:57:15.607Z,100305.91
2022-10-11T03:59:54.113Z,100306.00
2022-10-11T04:02:38.328Z,100308.37
2022-10-11T04:05:19.986Z,100297.50
2022-10-11T04:07:59.654Z,100312.88
2022-10-11T04:10:43.573Z,100308.44
2022-10-11T04:13:21.959Z,100306.13
2022-10-11T04:16:00.477Z,100307.38
2022-10-11T04:18:39.238Z,100307.22
2022-10-11T04:21:18.008Z,100312.09
2022-10-11T04:23:56.374Z,100308.19
2022-10-11T04:26:35.578Z,100311.25
2022-10-11T04:29:13.951Z,100303.19
2022-10-11T04:31:52.665Z,100307.25
2022-10-11T04:34:31.453Z,100303.62
2022-10-11T04:37:09.754Z,100297.84
2022-10-11T04:39:48.334Z,100295.31
2022-10-11T04:42:27.382Z,100294.31
2022-10-11T04:45:07.001Z,100297.75
2022-10-11T04:47:44.363Z,100298.03
2022-10-11T04:50:22.768Z,100303.44
2022-10-11T04:53:00.417Z,100308.72
2022-10-11T04:55:38.969Z,100309.16
2022-10-11T04:58:17.690Z,100308.63
2022-10-11T05:00:56.350Z,100308.59
2022-10-11T05:03:40.077Z,100315.66
2022-10-11T05:06:18.601Z,100306.38
2022-10-11T05:08:57.229Z,100305.28
2022-10-11T05:11:35.648Z,100308.84
2022-10-11T05:14:14.370Z,100312.31
2022-10-11T05:16:53.081Z,100315.75
2022-10-11T05:19:31.594Z,100321.25
2022-10-11T05:22:10.307Z,100314.44
2022-10-11T05:24:50.943Z,100322.50
2022-10-11T05:27:29.575Z,100318.53
2022-10-11T05:30:09.233Z,100321.38
2022-10-11T05:32:46.503Z,100330.47
2022-10-11T05:35:26.987Z,100326.59
2022-10-11T05:38:05.708Z,100332.94
2022-10-11T05:40:44.154Z,100345.37
2022-10-11T05:43:22.870Z,100344.94
2022-10-11T05:46:09.042Z,100342.44
2022-10-11T05:48:47.966Z,100340.59
2022-10-11T05:51:28.873Z,100361.47
2022-10-11T05:54:08.733Z,100357.59
2022-10-11T05:56:47.251Z,100357.06
2022-10-11T05:59:27.835Z,100362.16
2022-10-11T06:02:06.646Z,100362.06
2022-10-11T06:04:44.622Z,100365.13
2022-10-11T06:07:23.504Z,100365.94
2022-10-11T06:10:01.855Z,100373.03
2022-10-11T06:12:40.329Z,100375.25
2022-10-11T06:15:18.960Z,100369.06
2022-10-11T06:18:05.908Z,100375.91
2022-10-11T06:20:43.696Z,100370.31
2022-10-11T06:23:22.452Z,100367.53
2022-10-11T06:26:07.218Z,100379.34
2022-10-11T06:28:46.166Z,100378.66
2022-10-11T06:31:25.450Z,100378.25
2022-10-11T06:34:05.084Z,100380.63
2022-10-11T06:36:44.066Z,100380.31
2022-10-11T06:39:25.833Z,100383.09
2022-10-11T06:42:04.247Z,100383.25
2022-10-11T06:44:41.462Z,100382.03
2022-10-11T06:47:21.872Z,100385.22
2022-10-11T06:50:00.681Z,100388.25
2022-10-11T06:52:39.090Z,100393.72
2022-10-11T06:55:19.335Z,100386.81
2022-10-11T06:57:59.104Z,100392.03
2022-10-11T07:00:40.884Z,100397.75
2022-10-11T07:03:21.829Z,100398.12
2022-10-11T07:08:57.505Z,100392.38
2022-10-11T07:11:36.021Z,100394.94
2022-10-11T07:14:14.307Z,100401.69
2022-10-11T07:16:52.622Z,100396.78
2022-10-11T07:19:31.958Z,100397.31
2022-10-11T07:22:10.182Z,100398.09
2022-10-11T07:24:51.423Z,100393.69
2022-10-11T07:27:31.640Z,100397.16
2022-10-11T07:30:12.059Z,100403.78
2022-10-11T07:32:49.509Z,100401.94
2022-10-11T07:35:27.963Z,100400.50
2022-10-11T07:38:07.566Z,100404.78
2022-10-11T07:40:46.812Z,100396.44
2022-10-11T07:43:25.600Z,100402.47
2022-10-11T07:46:05.578Z,100409.16
2022-10-11T07:48:44.711Z,100409.59
2022-10-11T07:51:24.478Z,100398.78
2022-10-11T07:54:07.459Z,100396.28
2022-10-11T07:56:45.422Z,100401.03
2022-10-11T07:59:25.086Z,100395.63
2022-10-11T08:02:04.465Z,100409.84
2022-10-11T08:04:45.653Z,100405.12
2022-10-11T08:07:33.942Z,100399.31
2022-10-11T08:10:12.610Z,100413.69
2022-10-11T08:12:51.810Z,100400.00
2022-10-11T08:15:30.508Z,100406.72
2022-10-11T08:18:08.780Z,100406.09
2022-10-11T08:20:47.361Z,100405.28
2022-10-11T08:23:26.653Z,100400.19
2022-10-11T08:26:04.845Z,100415.94
2022-10-11T08:28:45.865Z,100405.63
2022-10-11T08:31:28.419Z,100399.75
2022-10-11T08:34:07.099Z,100408.72
2022-10-11T08:36:48.590Z,100401.25
2022-10-11T08:39:26.529Z,100402.38
2022-10-11T08:42:27.933Z,100403.81
2022-10-11T08:45:11.457Z,100400.91
2022-10-11T08:47:51.251Z,100402.25
2022-10-11T08:50:30.081Z,100395.31
2022-10-11T08:53:14.591Z,100402.56
2022-10-11T08:55:53.424Z,100398.22
2022-10-11T08:58:38.421Z,100399.53
2022-10-11T09:01:18.797Z,100401.12
2022-10-11T09:04:00.055Z,100409.78
2022-10-11T09:06:37.400Z,100398.69
2022-10-11T09:09:22.562Z,100400.75
2022-10-11T09:12:01.079Z,100400.03
2022-10-11T09:14:45.455Z,100387.59
2022-10-11T09:17:42.106Z,100403.22
2022-10-11T09:20:39.961Z,100405.31
2022-10-11T09:23:30.785Z,100405.34
2022-10-11T09:26:19.008Z,100407.28
2022-10-11T09:29:05.711Z,100405.72
2022-10-11T09:31:47.790Z,100410.88
2022-10-11T09:34:39.361Z,100410.88
2022-10-11T09:37:31.945Z,100416.34
2022-10-11T09:40:29.069Z,100409.13
2022-10-11T09:43:15.653Z,100408.75
2022-10-11T09:46:03.267Z,100403.81
2022-10-11T09:48:49.606Z,100419.06
2022-10-11T09:51:42.489Z,100405.69
2022-10-11T09:54:42.846Z,100409.22
2022-10-11T09:57:33.401Z,100419.06
2022-10-11T10:00:27.741Z,100420.13
2022-10-11T10:03:14.180Z,100410.56
2022-10-11T10:06:04.935Z,100418.72
2022-10-11T10:08:54.032Z,100401.78
2022-10-11T10:11:42.372Z,100409.94
2022-10-11T10:14:33.576Z,100404.03
2022-10-11T10:17:19.740Z,100402.56
2022-10-11T10:20:07.482Z,100394.97
2022-10-11T10:22:53.754Z,100393.37
2022-10-11T10:25:45.110Z,100395.12
2022-10-11T10:28:31.363Z,100390.03
2022-10-11T10:31:21.001Z,100395.09
2022-10-11T10:34:18.008Z,100397.06
2022-10-11T10:37:08.473Z,100397.94
2022-10-11T10:40:10.155Z,100400.56
2022-10-11T10:42:56.799Z,100399.84
2022-10-11T10:45:49.675Z,100398.38
2022-10-11T10:49:18.820Z,100401.09
2022-10-11T10:51:53.822Z,100401.78
2022-10-11T10:54:55.534Z,100394.00
2022-10-11T10:57:42.047Z,100398.09
2022-10-11T11:00:31.831Z,100391.78
2022-10-11T11:03:21.044Z,100384.66
2022-10-11T11:06:10.315Z,100384.59
2022-10-11T11:09:02.090Z,100384.53
2022-10-11T11:11:50.349Z,100383.66
2022-10-11T11:14:52.189Z,100387.34
2022-10-11T11:17:47.513Z,100382.28
2022-10-11T11:20:59.293Z,100385.94
2022-10-11T11:24:00.195Z,100381.00
2022-10-11T11:27:14.983Z,100391.34
2022-10-11T11:30:06.467Z,100386.75
2022-10-11T11:32:52.276Z,100385.41
2022-10-11T11:35:40.907Z,100380.13
2022-10-11T11:38:36.625Z,100377.91
2022-10-11T11:41:26.435Z,100371.22
2022-10-11T11:44:50.171Z,100372.28
2022-10-11T11:47:39.108Z,100377.09
2022-10-11T11:50:29.609Z,100361.53
2022-10-11T11:53:30.046Z,100370.59
2022-10-11T11:56:20.334Z,100366.44
2022-10-11T11:59:26.109Z,100367.56
2022-10-11T12:02:12.203Z,100376.09
2022-10-11T12:05:01.087Z,100365.87
2022-10-11T12:07:48.404Z,100364.62
2022-10-11T12:10:36.330Z,100369.91
2022-10-11T12:13:31.177Z,100366.00
2022-10-11T12:16:21.001Z,100365.19
2022-10-11T12:19:14.442Z,100364.12
2022-10-11T12:22:40.015Z,100365.06
2022-10-11T12:25:34.725Z,100352.50
2022-10-11T12:28:37.303Z,100352.19
2022-10-11T12:31:26.127Z,100353.59
2022-10-11T12:37:19.731Z,100344.09
2022-10-11T12:40:30.132Z,100337.47
2022-10-11T12:43:18.343Z,100339.53
2022-10-11T12:46:26.057Z,100338.91
2022-10-11T12:49:25.556Z,100336.84
2022-10-11T12:52:16.363Z,100336.31
2022-10-11T12:55:24.765Z,100338.59
2022-10-11T12:58:30.971Z,100335.50
2022-10-11T13:01:19.361Z,100342.25
2022-10-11T13:04:12.208Z,100342.44
2022-10-11T13:07:08.039Z,100333.72
2022-10-11T13:10:03.058Z,100339.50
2022-10-11T13:12:51.398Z,100352.69
2022-10-11T13:15:42.451Z,100342.25
2022-10-11T13:18:29.090Z,100335.34
2022-10-11T13:21:28.043Z,100333.69
2022-10-11T13:24:18.253Z,100339.06
2022-10-11T13:27:06.355Z,100339.84
2022-10-11T13:29:56.332Z,100341.41
2022-10-11T13:32:44.001Z,100336.41
2022-10-11T13:35:33.789Z,100336.09
2022-10-11T13:38:32.068Z,100347.81
2022-10-11T13:41:21.043Z,100347.50
2022-10-11T13:44:09.204Z,100337.44
2022-10-11T13:46:56.025Z,100337.94
2022-10-11T13:50:01.097Z,100334.94
2022-10-11T13:52:55.579Z,100334.34
2022-10-11T13:55:42.622Z,100336.50
2022-10-11T13:58:49.178Z,100342.41
2022-10-11T14:01:38.118Z,100341.28
2022-10-11T14:04:31.278Z,100336.25
2022-10-11T14:07:31.198Z,100340.03
2022-10-11T14:10:25.002Z,100339.97
2022-10-11T14:13:36.087Z,100344.19
2022-10-11T14:16:24.377Z,100344.12
2022-10-11T14:19:12.329Z,100341.03
2022-10-11T14:22:02.158Z,100345.03
2022-10-11T14:24:52.095Z,100353.31
2022-10-11T14:27:51.018Z,100344.69
2022-10-11T14:31:19.021Z,100340.75
2022-10-11T14:34:10.080Z,100343.81
2022-10-11T14:36:57.381Z,100349.56
2022-10-11T14:39:52.045Z,100350.91
2022-10-11T14:42:41.004Z,100347.38
2022-10-11T14:45:32.015Z,100350.38
2022-10-11T14:48:50.316Z,100352.28
2022-10-11T14:51:34.089Z,100339.56
2022-10-11T14:54:23.591Z,100350.56
2022-10-11T14:57:16.321Z,100351.00
2022-10-11T15:03:14.076Z,100348.41
2022-10-11T15:06:03.533Z,100347.59
2022-10-11T15:08:58.667Z,100347.97
2022-10-11T15:11:48.912Z,100348.09
2022-10-11T15:14:36.284Z,100346.81
2022-10-11T15:20:28.666Z,100356.53
2022-10-11T15:23:29.165Z,100359.88
2022-10-11T15:26:22.254Z,100364.00
2022-10-11T15:29:18.981Z,100361.69
2022-10-11T15:32:09.043Z,100371.16
2022-10-11T15:34:56.741Z,100358.16
2022-10-11T15:37:45.967Z,100367.94
2022-10-11T15:40:35.540Z,100367.69
2022-10-11T15:43:24.898Z,100375.25
2022-10-11T15:46:18.021Z,100375.13
2022-10-11T15:49:11.209Z,100372.41
2022-10-11T15:51:59.045Z,100374.69
2022-10-11T15:54:47.707Z,100375.53
2022-10-11T15:57:39.044Z,100376.25
2022-10-11T16:00:29.479Z,100381.78
2022-10-11T16:03:20.019Z,100379.03
2022-10-11T16:09:07.069Z,100396.06
2022-10-11T16:12:00.008Z,100397.13
2022-10-11T16:14:51.735Z,100394.78
2022-10-11T16:17:49.557Z,100400.69
2022-10-11T16:20:40.638Z,100405.53
2022-10-11T16:23:28.244Z,100407.25
2022-10-11T16:26:18.169Z,100408.66
2022-10-11T16:29:22.328Z,100410.75
2022-10-11T16:32:17.207Z,100416.19
2022-10-11T16:35:13.121Z,100411.94
2022-10-11T16:38:06.049Z,100423.06
2022-10-11T16:40:53.441Z,100425.44
2022-10-11T16:43:50.782Z,100425.03
2022-10-11T16:46:38.525Z,100428.47
2022-10-11T16:49:32.962Z,100426.84
2022-10-11T16:52:25.075Z,100426.13
2022-10-11T16:55:11.633Z,100427.31
2022-10-11T16:58:00.676Z,100432.16
2022-10-11T17:00:50.756Z,100428.31
2022-10-11T17:03:42.253Z,100432.56
2022-10-11T17:06:40.964Z,100440.72
2022-10-11T17:09:29.722Z,100439.50
2022-10-11T17:12:25.102Z,100442.22
2022-10-11T17:15:18.062Z,100459.28
2022-10-11T17:18:12.997Z,100453.69
2022-10-11T17:21:06.595Z,100450.19
2022-10-11T17:23:56.047Z,100446.19
2022-10-11T17:26:52.137Z,100456.38
2022-10-11T17:29:45.329Z,100455.97
2022-10-11T17:32:35.086Z,100454.44
2022-10-11T17:35:25.622Z,100455.72
2022-10-11T17:38:18.039Z,100462.75
2022-10-11T17:41:08.286Z,100455.09
2022-10-11T17:43:57.306Z,100463.28
2022-10-11T17:49:49.113Z,100465.56
2022-10-11T17:52:41.044Z,100463.16
2022-10-11T17:55:29.460Z,100465.44
2022-10-11T17:58:19.045Z,100473.09
2022-10-11T18:01:18.092Z,100462.28
2022-10-11T18:04:17.041Z,100468.22
2022-10-11T18:07:21.378Z,100465.84
2022-10-11T18:10:17.875Z,100470.06
2022-10-11T18:13:08.515Z,100466.63
2022-10-11T18:18:58.097Z,100470.59
2022-10-11T18:24:41.059Z,100481.03
2022-10-11T18:27:36.313Z,100482.13
2022-10-11T18:30:25.917Z,100478.09
2022-10-11T18:33:15.019Z,100481.47
2022-10-11T18:36:04.221Z,100467.13
2022-10-11T18:39:03.049Z,100481.00
2022-10-11T18:41:50.057Z,100469.75
2022-10-11T18:44:46.073Z,100480.13
2022-10-11T18:47:33.244Z,100475.81
2022-10-11T18:50:23.996Z,100466.44
2022-10-11T18:53:24.093Z,100467.13
2022-10-11T18:56:24.088Z,100468.13
2022-10-11T18:59:17.605Z,100469.91
2022-10-11T19:02:08.042Z,100469.34
2022-10-11T19:05:00.690Z,100468.06
2022-10-11T19:07:49.419Z,100466.94
2022-10-11T19:10:43.150Z,100466.41
2022-10-11T19:13:35.562Z,100474.50
2022-10-11T19:16:36.136Z,100475.31
2022-10-11T19:19:28.543Z,100487.75
2022-10-11T19:22:24.112Z,100475.84
2022-10-11T19:25:15.056Z,100475.62
2022-10-11T19:28:03.809Z,100481.69
2022-10-11T19:30:51.789Z,100481.69
2022-10-11T19:33:42.274Z,100486.62
2022-10-11T19:36:36.700Z,100491.63
2022-10-11T19:39:25.650Z,100477.72
2022-10-11T19:42:13.573Z,100494.00
2022-10-11T19:45:03.089Z,100487.94
2022-10-11T19:47:53.297Z,100494.59
2022-10-11T19:50:40.061Z,100493.28
2022-10-11T19:53:32.097Z,100490.00
2022-10-11T19:56:27.069Z,100490.88
2022-10-11T19:59:21.987Z,100491.50
2022-10-11T20:02:11.061Z,100482.44
2022-10-11T20:04:58.026Z,100490.75
2022-10-11T20:07:49.985Z,100495.50
2022-10-11T20:10:37.852Z,100500.12
2022-10-11T20:13:24.658Z,100499.13
2022-10-11T20:16:15.126Z,100503.50
2022-10-11T20:19:02.175Z,100498.56
2022-10-11T20:21:49.373Z,100499.56
2022-10-11T20:24:37.340Z,100503.28
2022-10-11T20:27:28.249Z,100501.63
2022-10-11T20:30:21.038Z,100507.47
2022-10-11T20:33:12.379Z,100503.75
2022-10-11T20:35:58.911Z,100507.66
2022-10-11T20:38:46.485Z,100509.91
2022-10-11T20:41:33.686Z,100507.47
2022-10-11T20:44:20.427Z,100507.00
2022-10-11T20:47:10.057Z,100507.19
2022-10-11T20:49:57.074Z,100512.47
2022-10-11T20:52:44.349Z,100514.72
2022-10-11T20:55:36.015Z,100513.09
2022-10-11T20:58:22.199Z,100515.63
2022-10-11T21:01:10.042Z,100507.94
2022-10-11T21:04:00.008Z,100510.78
2022-10-11T21:06:49.014Z,100514.72
2022-10-11T21:09:35.979Z,100511.84
2022-10-11T21:12:22.994Z,100516.19
2022-10-11T21:15:11.351Z,100505.78
2022-10-11T21:17:58.170Z,100509.69
2022-10-11T21:20:44.794Z,100497.84
2022-10-11T21:23:31.410Z,100505.37
2022-10-11T21:26:18.415Z,100513.19
2022-10-11T21:29:05.003Z,100509.62
2022-10-11T21:31:51.116Z,100511.16
2022-10-11T21:34:43.633Z,100521.22
2022-10-11T21:37:30.159Z,100517.88
2022-10-11T21:40:16.651Z,100523.44
2022-10-11T21:43:03.194Z,100521.03
2022-10-11T21:45:54.201Z,100522.72
2022-10-11T21:48:41.690Z,100512.16
2022-10-11T21:51:32.161Z,100514.50
2022-10-11T21:54:19.207Z,100523.88
2022-10-11T21:57:06.490Z,100516.09
2022-10-11T21:59:52.783Z,100510.88
2022-10-11T22:02:39.302Z,100514.28
2022-10-11T22:05:27.059Z,100512.44
2022-10-11T22:08:13.891Z,100515.72
2022-10-11T22:11:00.989Z,100510.59
2022-10-11T22:13:49.463Z,100520.19
2022-10-11T22:16:36.300Z,100515.59
2022-10-11T22:19:23.327Z,100511.91
2022-10-11T22:22:10.555Z,100509.56
2022-10-11T22:24:56.542Z,100507.38
2022-10-11T22:27:42.774Z,100514.72
2022-10-11T22:30:29.866Z,100509.16
2022-10-11T22:33:17.078Z,100512.84
2022-10-11T22:36:04.394Z,100516.78
2022-10-11T22:38:51.924Z,100513.34
2022-10-11T22:41:37.944Z,100519.84
2022-10-11T22:44:24.041Z,100512.41
2022-10-11T22:47:09.860Z,100516.09
2022-10-11T22:49:56.321Z,100515.72
2022-10-11T22:52:43.374Z,100508.78
2022-10-11T22:55:29.752Z,100510.59
2022-10-11T22:58:17.157Z,100503.19
2022-10-11T23:01:08.127Z,100512.09
2022-10-11T23:03:54.023Z,100513.47
2022-10-11T23:06:42.373Z,100513.94
2022-10-11T23:09:29.008Z,100511.47
2022-10-11T23:12:15.450Z,100518.47
2022-10-11T23:15:01.424Z,100514.34
2022-10-11T23:17:48.227Z,100519.47
2022-10-11T23:20:34.155Z,100512.16
2022-10-11T23:23:21.149Z,100525.63
2022-10-11T23:26:09.308Z,100520.03
2022-10-11T23:28:55.671Z,100522.38
2022-10-11T23:31:41.544Z,100525.97
2022-10-11T23:34:28.096Z,100524.97
2022-10-11T23:37:13.998Z,100528.28
2022-10-11T23:40:00.366Z,100523.28
2022-10-11T23:42:46.420Z,100527.38
2022-10-11T23:45:32.465Z,100528.19
2022-10-11T23:48:18.417Z,100542.09
2022-10-11T23:51:04.966Z,100546.41
2022-10-11T23:53:50.691Z,100547.53
2022-10-11T23:56:37.371Z,100551.09
2022-10-11T23:59:23.369Z,100547.53
